Time;durP1;ratioP1;P1;durP2;ratioP2;P2;SDS_P1;SDS_P2;PMS_P1;PMS_P2;Temp;Humidity;BMP_temperature;BMP_pressure;BME280_temperature;BME280_humidity;BME280_pressure;Samples;Min_cycle;Max_cycle;Signal;HPM_P1;HPM_P2
2023/03/05 00:01:05;;;;;;;;;;;;;;;;;;5091601;28;1455;-43
2023/03/05 00:03:33;;;;;;;;;;;;;;;;;;5071359;28;2183;-45
2023/03/05 00:06:01;;;;;;;;;;;;;;;;;;5086180;28;1998;-41
2023/03/05 00:08:29;;;;;;;;;;;;;;;;;;5092205;28;1820;-41
2023/03/05 00:10:57;;;;;;;;;;;;;;;;;;5092486;28;2042;-43
2023/03/05 00:13:25;;;;;;;;;;;;;;;;;;5092521;28;2126;-43
2023/03/05 00:15:52;;;;;;;;;;;;;;;;;;5092124;28;1821;-41
2023/03/05 00:18:19;;;;;;;;;;;;;;;;;;5092738;28;2104;-47
2023/03/05 00:20:46;;;;;;;;;;;;;;;;;;5091990;28;2256;-43
2023/03/05 00:23:14;;;;;;;;;;;;;;;;;;5092436;28;1980;-42
2023/03/05 00:25:41;;;;;;;;;;;;;;;;;;5092425;28;1657;-44
2023/03/05 00:28:08;;;;;;;;;;;;;;;;;;5092098;28;2084;-47
2023/03/05 00:30:35;;;;;;;;;;;;;;;;;;5074026;28;1853;-41
2023/03/05 00:33:03;;;;;;;;;;;;;;;;;;5073916;28;2081;-43
2023/03/05 00:35:30;;;;;;;;;;;;;;;;;;5053403;28;1624;-45
2023/03/05 00:37:57;;;;;;;;;;;;;;;;;;5071643;28;1709;-44
2023/03/05 00:40:24;;;;;;;;;;;;;;;;;;5071807;28;2028;-44
2023/03/05 00:42:52;;;;;;;;;;;;;;;;;;5054247;28;1475;-45
2023/03/05 00:45:19;;;;;;;;;;;;;;;;;;5071489;28;2020;-43
2023/03/05 00:47:46;;;;;;;;;;;;;;;;;;5071403;28;1443;-44
2023/03/05 00:50:19;;;;;;;;;;;;;;;;;;5071661;28;1866;-47
2023/03/05 00:52:46;;;;;;;;;;;;;;;;;;5053832;28;2064;-46
2023/03/05 00:55:13;;;;;;;;;;;;;;;;;;5053619;28;1860;-45
2023/03/05 00:57:41;;;;;;;;;;;;;;;;;;5071195;28;2101;-44
2023/03/05 01:00:08;;;;;;;;;;;;;;;;;;5053490;28;1398;-42
2023/03/05 01:02:35;;;;;;;;;;;;;;;;;;5071208;28;1838;-44
2023/03/05 01:05:03;;;;;;;;;;;;;;;;;;5070972;28;2261;-43
2023/03/05 01:07:30;;;;;;;;;;;;;;;;;;5071184;28;1773;-43
2023/03/05 01:09:57;;;;;;;;;;;;;;;;;;5053331;28;1996;-42
2023/03/05 01:12:24;;;;;;;;;;;;;;;;;;5071638;28;2070;-45
2023/03/05 01:14:51;;;;;;;;;;;;;;;;;;5052970;28;1740;-46
2023/03/05 01:17:19;;;;;;;;;;;;;;;;;;5070918;28;1619;-42
2023/03/05 01:19:46;;;;;;;;;;;;;;;;;;5071445;28;1878;-46
2023/03/05 01:22:13;;;;;;;;;;;;;;;;;;5070935;28;1912;-42
2023/03/05 01:24:40;;;;;;;;;;;;;;;;;;5071061;28;1984;-42
2023/03/05 01:27:07;;;;;;;;;;;;;;;;;;5071093;28;1961;-46
2023/03/05 01:29:35;;;;;;;;;;;;;;;;;;5070942;28;2036;-43
2023/03/05 01:32:02;;;;;;;;;;;;;;;;;;5080323;28;1764;-47
2023/03/05 01:34:29;;;;;;;;;;;;;;;;;;5085685;28;2070;-47
2023/03/05 01:36:57;;;;;;;;;;;;;;;;;;5053113;28;1425;-43
2023/03/05 01:39:24;;;;;;;;;;;;;;;;;;5071155;28;2061;-46
2023/03/05 01:41:51;;;;;;;;;;;;;;;;;;5053137;28;2279;-45
2023/03/05 01:44:23;;;;;;;;;;;;;;;;;;5070684;28;1911;-46
2023/03/05 01:46:50;;;;;;;;;;;;;;;;;;5071089;28;2133;-43
2023/03/05 01:49:19;;;;;;;;;;;;;;;;;;5052662;28;2339;-42
2023/03/05 01:51:53;;;;;;;;;;;;;;;;;;5070844;28;2084;-45
2023/03/05 01:54:23;;;;;;;;;;;;;;;;;;5070808;28;1727;-45
2023/03/05 01:56:50;;;;;;;;;;;;;;;;;;5070370;28;1859;-44
2023/03/05 01:59:18;;;;;;;;;;;;;;;;;;5052812;28;1703;-43
2023/03/05 02:01:47;;;;;;;;;;;;;;;;;;5070459;28;1762;-42
2023/03/05 02:04:16;;;;;;;;;;;;;;;;;;5070441;28;2026;-47
2023/03/05 02:06:43;;;;;;;;;;;;;;;;;;5072413;28;2063;-41
2023/03/05 02:09:11;;;;;;;;;;;;;;;;;;5090642;28;2048;-43
2023/03/05 02:11:38;;;;;;;;;;;;;;;;;;5090744;28;1743;-43
2023/03/05 02:14:06;;;;;;;;;;;;;;;;;;5090694;28;2108;-42
2023/03/05 02:16:36;;;;;;;;;;;;;;;;;;5090895;28;1809;-42
2023/03/05 02:19:05;;;;;;;;;;;;;;;;;;5090774;28;1815;-45
2023/03/05 02:21:44;;;;;;;;;;;;;;;;;;5090482;28;1990;-42
2023/03/05 02:24:15;;;;;;;;;;;;;;;;;;5090532;28;1911;-44
2023/03/05 02:26:43;;;;;;;;;;;;;;;;;;5091067;28;1929;-41
2023/03/05 02:29:13;;;;;;;;;;;;;;;;;;5094160;28;1806;-47
2023/03/05 02:31:41;;;;;;;;;;;;;;;;;;5087603;28;1850;-42
2023/03/05 02:34:09;;;;;;;;;;;;;;;;;;5073644;28;1388;-45
2023/03/05 02:36:36;;;;;;;;;;;;;;;;;;5074020;28;2109;-41
2023/03/05 02:39:04;;;;;;;;;;;;;;;;;;5074079;28;2092;-47
2023/03/05 02:41:31;;;;;;;;;;;;;;;;;;5074177;28;1770;-43
2023/03/05 02:43:58;;;;;;;;;;;;;;;;;;5073760;28;1959;-44
2023/03/05 02:46:25;;;;;;;;;;;;;;;;;;5073938;28;1929;-44
2023/03/05 02:48:52;;;;;;;;;;;;;;;;;;5073476;28;2240;-42
2023/03/05 02:51:20;;;;;;;;;;;;;;;;;;5066130;28;2295;-44
2023/03/05 02:53:47;;;;;;;;;;;;;;;;;;5056059;28;1892;-44
2023/03/05 02:56:15;;;;;;;;;;;;;;;;;;5073661;28;1668;-43
2023/03/05 02:58:42;;;;;;;;;;;;;;;;;;5073847;28;1866;-41
2023/03/05 03:01:09;;;;;;;;;;;;;;;;;;5073486;28;2312;-46
2023/03/05 03:03:37;;;;;;;;;;;;;;;;;;5055575;28;1980;-43
2023/03/05 03:06:08;;;;;;;;;;;;;;;;;;5073438;28;1920;-44
2023/03/05 03:08:35;;;;;;;;;;;;;;;;;;5073267;28;1890;-42
2023/03/05 03:11:04;;;;;;;;;;;;;;;;;;5055729;28;1873;-41
2023/03/05 03:13:31;;;;;;;;;;;;;;;;;;5073455;28;2212;-44
2023/03/05 03:16:06;;;;;;;;;;;;;;;;;;5073412;28;1758;-41
2023/03/05 03:18:36;;;;;;;;;;;;;;;;;;5089424;28;1644;-44
2023/03/05 03:21:03;;;;;;;;;;;;;;;;;;5093706;28;2027;-41
2023/03/05 03:23:31;;;;;;;;;;;;;;;;;;5093836;28;1988;-45
2023/03/05 03:25:58;;;;;;;;;;;;;;;;;;5093335;28;2167;-41
2023/03/05 03:28:25;;;;;;;;;;;;;;;;;;5093240;28;2068;-42
2023/03/05 03:30:52;;;;;;;;;;;;;;;;;;5081239;28;1870;-41
2023/03/05 03:33:20;;;;;;;;;;;;;;;;;;5072967;28;1880;-44
2023/03/05 03:35:47;;;;;;;;;;;;;;;;;;5072834;28;1813;-42
2023/03/05 03:38:14;;;;;;;;;;;;;;;;;;5072762;28;2102;-43
2023/03/05 03:40:41;;;;;;;;;;;;;;;;;;5072714;28;2217;-44
2023/03/05 03:43:08;;;;;;;;;;;;;;;;;;5072784;28;2091;-40
2023/03/05 03:45:39;;;;;;;;;;;;;;;;;;5072642;28;2336;-41
2023/03/05 03:48:06;;;;;;;;;;;;;;;;;;5090790;28;1842;-40
2023/03/05 03:50:33;;;;;;;;;;;;;;;;;;5092931;28;1793;-40
2023/03/05 03:53:00;;;;;;;;;;;;;;;;;;5093161;28;2040;-44
2023/03/05 03:55:28;;;;;;;;;;;;;;;;;;5091583;28;1710;-42
2023/03/05 03:57:55;;;;;;;;;;;;;;;;;;5079115;28;2239;-42
2023/03/05 04:00:22;;;;;;;;;;;;;;;;;;5072459;28;2085;-41
2023/03/05 04:02:49;;;;;;;;;;;;;;;;;;5076850;28;1773;-41
2023/03/05 04:05:17;;;;;;;;;;;;;;;;;;5084661;28;1922;-41
2023/03/05 04:07:44;;;;;;;;;;;;;;;;;;5081536;28;2064;-42
2023/03/05 04:10:11;;;;;;;;;;;;;;;;;;5092404;28;1884;-41
2023/03/05 04:12:41;;;;;;;;;;;;;;;;;;5092561;28;1936;-41
2023/03/05 04:15:09;;;;;;;;;;;;;;;;;;5092442;28;1998;-42
2023/03/05 04:17:36;;;;;;;;;;;;;;;;;;5086813;28;2021;-40
2023/03/05 04:20:05;;;;;;;;;;;;;;;;;;5072404;28;1773;-40
2023/03/05 04:22:32;;;;;;;;;;;;;;;;;;5072290;28;1966;-40
2023/03/05 04:25:02;;;;;;;;;;;;;;;;;;5071834;28;1979;-40
2023/03/05 04:27:29;;;;;;;;;;;;;;;;;;5089166;28;2004;-41
2023/03/05 04:29:57;;;;;;;;;;;;;;;;;;5071901;28;1635;-40
2023/03/05 04:32:28;;;;;;;;;;;;;;;;;;5084207;28;2134;-40
2023/03/05 04:34:56;;;;;;;;;;;;;;;;;;5091740;28;1881;-42
2023/03/05 04:37:24;;;;;;;;;;;;;;;;;;5092017;28;1687;-42
2023/03/05 04:39:52;;;;;;;;;;;;;;;;;;5092329;28;1858;-41
2023/03/05 04:42:19;;;;;;;;;;;;;;;;;;5090894;28;2013;-42
2023/03/05 04:44:48;;;;;;;;;;;;;;;;;;5071653;28;1907;-40
2023/03/05 04:47:15;;;;;;;;;;;;;;;;;;5071553;28;1379;-40
2023/03/05 04:49:43;;;;;;;;;;;;;;;;;;5070741;28;1771;-41
2023/03/05 04:52:11;;;;;;;;;;;;;;;;;;5071626;28;1824;-41
2023/03/05 04:54:38;;;;;;;;;;;;;;;;;;5071616;28;2138;-41
2023/03/05 04:57:05;;;;;;;;;;;;;;;;;;5081875;28;2185;-40
2023/03/05 04:59:32;;;;;;;;;;;;;;;;;;5073592;28;1477;-41
2023/03/05 05:01:59;;;;;;;;;;;;;;;;;;5071152;28;2020;-43
2023/03/05 05:04:26;;;;;;;;;;;;;;;;;;5077589;28;1955;-40
2023/03/05 05:06:55;;;;;;;;;;;;;;;;;;5071106;28;2274;-41
2023/03/05 05:09:22;;;;;;;;;;;;;;;;;;5071181;28;2141;-45
2023/03/05 05:11:49;;;;;;;;;;;;;;;;;;5071356;28;2078;-40
2023/03/05 05:14:17;;;;;;;;;;;;;;;;;;5071038;28;2075;-41
2023/03/05 05:16:44;;;;;;;;;;;;;;;;;;5070535;28;2173;-41
2023/03/05 05:19:12;;;;;;;;;;;;;;;;;;5071137;28;1967;-40
2023/03/05 05:21:39;;;;;;;;;;;;;;;;;;5071264;28;2076;-42
2023/03/05 05:24:06;;;;;;;;;;;;;;;;;;5075311;28;2009;-40
2023/03/05 05:26:34;;;;;;;;;;;;;;;;;;5067135;28;2615;-41
2023/03/05 05:29:01;;;;;;;;;;;;;;;;;;5071137;28;1868;-42
2023/03/05 05:31:28;;;;;;;;;;;;;;;;;;5072332;28;1862;-40
2023/03/05 05:33:55;;;;;;;;;;;;;;;;;;5070918;28;1953;-42
2023/03/05 05:36:23;;;;;;;;;;;;;;;;;;5070662;28;1600;-40
2023/03/05 05:38:50;;;;;;;;;;;;;;;;;;5071234;28;1783;-41
2023/03/05 05:41:18;;;;;;;;;;;;;;;;;;5070936;28;1701;-47
2023/03/05 05:43:45;;;;;;;;;;;;;;;;;;5070658;28;1910;-40
2023/03/05 05:46:14;;;;;;;;;;;;;;;;;;5071071;28;2251;-39
2023/03/05 05:48:42;;;;;;;;;;;;;;;;;;5071116;28;2146;-39
2023/03/05 05:51:10;;;;;;;;;;;;;;;;;;5071041;28;2051;-39
2023/03/05 05:53:38;;;;;;;;;;;;;;;;;;5070582;28;1504;-44
2023/03/05 05:56:06;;;;;;;;;;;;;;;;;;5070846;28;2079;-41
2023/03/05 05:58:34;;;;;;;;;;;;;;;;;;5070758;28;1626;-41
2023/03/05 06:01:01;;;;;;;;;;;;;;;;;;5070683;28;2048;-40
2023/03/05 06:03:28;;;;;;;;;;;;;;;;;;5074395;28;1882;-41
2023/03/05 06:05:57;;;;;;;;;;;;;;;;;;5087700;28;1919;-40
2023/03/05 06:08:24;;;;;;;;;;;;;;;;;;5094648;28;2022;-40
2023/03/05 06:10:54;;;;;;;;;;;;;;;;;;5094875;28;1572;-41
2023/03/05 06:13:21;;;;;;;;;;;;;;;;;;5094944;28;2168;-45
2023/03/05 06:15:55;;;;;;;;;;;;;;;;;;5094561;28;2013;-41
2023/03/05 06:18:23;;;;;;;;;;;;;;;;;;5094694;28;1774;-40
2023/03/05 06:20:56;;;;;;;;;;;;;;;;;;5094781;28;1466;-41
2023/03/05 06:23:24;;;;;;;;;;;;;;;;;;5094470;28;1855;-40
2023/03/05 06:25:52;;;;;;;;;;;;;;;;;;5094175;28;1974;-40
2023/03/05 06:28:19;;;;;;;;;;;;;;;;;;5094492;28;1371;-39
2023/03/05 06:30:47;;;;;;;;;;;;;;;;;;5094513;28;1908;-41
2023/03/05 06:33:14;;;;;;;;;;;;;;;;;;5075015;28;2028;-40
2023/03/05 06:35:41;;;;;;;;;;;;;;;;;;5072175;28;1540;-40
2023/03/05 06:38:08;;;;;;;;;;;;;;;;;;5073556;28;1851;-40
2023/03/05 06:40:38;;;;;;;;;;;;;;;;;;5073987;28;2000;-40
2023/03/05 06:43:05;;;;;;;;;;;;;;;;;;5073796;28;1824;-40
2023/03/05 06:45:32;;;;;;;;;;;;;;;;;;5073893;28;2199;-40
2023/03/05 06:47:59;;;;;;;;;;;;;;;;;;5073877;28;1587;-41
2023/03/05 06:50:26;;;;;;;;;;;;;;;;;;5073508;28;1828;-40
2023/03/05 06:52:54;;;;;;;;;;;;;;;;;;5073405;28;1943;-41
2023/03/05 06:55:21;;;;;;;;;;;;;;;;;;5073500;28;1420;-40
2023/03/05 06:57:48;;;;;;;;;;;;;;;;;;5073503;28;1889;-40
2023/03/05 07:00:15;;;;;;;;;;;;;;;;;;5073615;28;1935;-40
2023/03/05 07:02:42;;;;;;;;;;;;;;;;;;5073760;28;2141;-40
2023/03/05 07:05:09;;;;;;;;;;;;;;;;;;5079710;28;2261;-40
2023/03/05 07:07:37;;;;;;;;;;;;;;;;;;5078330;28;2079;-42
2023/03/05 07:10:06;;;;;;;;;;;;;;;;;;5055617;28;1688;-39
2023/03/05 07:12:33;;;;;;;;;;;;;;;;;;5072921;28;1457;-45
2023/03/05 07:15:00;;;;;;;;;;;;;;;;;;5072965;28;1934;-40
2023/03/05 07:17:28;;;;;;;;;;;;;;;;;;5084673;28;2171;-40
2023/03/05 07:19:55;;;;;;;;;;;;;;;;;;5093412;28;2130;-44
2023/03/05 07:22:24;;;;;;;;;;;;;;;;;;5093313;28;1988;-40
2023/03/05 07:24:51;;;;;;;;;;;;;;;;;;5093283;28;2252;-41
2023/03/05 07:27:18;;;;;;;;;;;;;;;;;;5093252;28;1954;-50
2023/03/05 07:29:46;;;;;;;;;;;;;;;;;;5093373;28;1647;-41
2023/03/05 07:32:13;;;;;;;;;;;;;;;;;;5081817;28;1481;-41
2023/03/05 07:34:40;;;;;;;;;;;;;;;;;;5054942;28;1938;-41
2023/03/05 07:37:07;;;;;;;;;;;;;;;;;;5086462;28;1808;-40
2023/03/05 07:39:34;;;;;;;;;;;;;;;;;;5092917;28;2283;-41
2023/03/05 07:42:01;;;;;;;;;;;;;;;;;;5083162;28;1582;-40
2023/03/05 07:44:46;;;;;;;;;;;;;;;;;;5054750;28;1945;-41
2023/03/05 07:47:13;;;;;;;;;;;;;;;;;;5072497;28;1920;-41
2023/03/05 07:49:41;;;;;;;;;;;;;;;;;;5072712;28;1947;-41
2023/03/05 07:52:08;;;;;;;;;;;;;;;;;;5072618;28;2176;-40
2023/03/05 07:54:37;;;;;;;;;;;;;;;;;;5072517;28;1799;-41
2023/03/05 07:57:05;;;;;;;;;;;;;;;;;;5072044;28;2060;-41
2023/03/05 07:59:32;;;;;;;;;;;;;;;;;;5072441;28;2101;-41
2023/03/05 08:01:59;;;;;;;;;;;;;;;;;;5072337;28;1971;-45
2023/03/05 08:04:26;;;;;;;;;;;;;;;;;;5072788;28;1776;-41
2023/03/05 08:06:53;;;;;;;;;;;;;;;;;;5083697;28;2220;-42
2023/03/05 08:09:21;;;;;;;;;;;;;;;;;;5072629;28;1995;-40
2023/03/05 08:11:48;;;;;;;;;;;;;;;;;;5054189;28;2190;-44
2023/03/05 08:14:16;;;;;;;;;;;;;;;;;;5072352;28;1353;-41
2023/03/05 08:16:43;;;;;;;;;;;;;;;;;;5072197;28;2016;-44
2023/03/05 08:19:13;;;;;;;;;;;;;;;;;;5072056;28;1968;-40
2023/03/05 08:21:40;;;;;;;;;;;;;;;;;;5072046;28;1617;-40
2023/03/05 08:24:08;;;;;;;;;;;;;;;;;;5071446;28;2076;-40
2023/03/05 08:26:39;;;;;;;;;;;;;;;;;;5071896;28;2007;-41
2023/03/05 08:29:07;;;;;;;;;;;;;;;;;;5071621;28;1703;-41
2023/03/05 08:31:34;;;;;;;;;;;;;;;;;;5077509;28;1707;-43
2023/03/05 08:34:02;;;;;;;;;;;;;;;;;;5092027;28;1641;-40
2023/03/05 08:36:29;;;;;;;;;;;;;;;;;;5091979;28;1487;-41
2023/03/05 08:38:58;;;;;;;;;;;;;;;;;;5088137;28;2153;-41
2023/03/05 08:41:25;;;;;;;;;;;;;;;;;;5072334;28;1847;-40
2023/03/05 08:43:52;;;;;;;;;;;;;;;;;;5071635;28;1678;-41
2023/03/05 08:46:19;;;;;;;;;;;;;;;;;;5069945;28;1910;-40
2023/03/05 08:48:47;;;;;;;;;;;;;;;;;;5069726;28;1742;-40
2023/03/05 08:51:20;;;;;;;;;;;;;;;;;;5069441;28;1996;-40
2023/03/05 08:53:47;;;;;;;;;;;;;;;;;;5069762;28;2073;-40
2023/03/05 08:56:14;;;;;;;;;;;;;;;;;;5069477;28;2079;-41
2023/03/05 08:58:41;;;;;;;;;;;;;;;;;;5069500;28;1836;-40
2023/03/05 09:01:09;;;;;;;;;;;;;;;;;;5070216;28;2118;-40
2023/03/05 09:03:37;;;;;;;;;;;;;;;;;;5071471;28;2020;-41
2023/03/05 09:06:06;;;;;;;;;;;;;;;;;;5085424;28;2233;-40
2023/03/05 09:08:34;;;;;;;;;;;;;;;;;;5091687;28;1861;-40
2023/03/05 09:11:02;;;;;;;;;;;;;;;;;;5091398;28;2394;-41
2023/03/05 09:13:29;;;;;;;;;;;;;;;;;;5091485;28;1950;-42
2023/03/05 09:15:57;;;;;;;;;;;;;;;;;;5067181;28;1736;-41
2023/03/05 09:18:24;;;;;;;;;;;;;;;;;;5071353;28;2073;-42
2023/03/05 09:20:52;;;;;;;;;;;;;;;;;;5071427;28;1730;-42
2023/03/05 09:23:19;;;;;;;;;;;;;;;;;;5070950;28;1657;-41
2023/03/05 09:25:46;;;;;;;;;;;;;;;;;;5070884;28;1914;-40
2023/03/05 09:28:13;;;;;;;;;;;;;;;;;;5071028;28;1528;-41
2023/03/05 09:30:40;;;;;;;;;;;;;;;;;;5072367;28;1919;-41
2023/03/05 09:33:07;;;;;;;;;;;;;;;;;;5089437;28;1978;-42
2023/03/05 09:35:35;;;;;;;;;;;;;;;;;;5090617;28;1821;-41
2023/03/05 09:38:05;;;;;;;;;;;;;;;;;;5091234;28;2064;-40
2023/03/05 09:40:53;;;;;;;;;;;;;;;;;;5091319;28;1995;-41
2023/03/05 09:43:29;;;;;;;;;;;;;;;;;;5091049;28;1886;-41
2023/03/05 09:46:00;;;;;;;;;;;;;;;;;;5091125;28;2063;-41
2023/03/05 09:48:40;;;;;;;;;;;;;;;;;;5091189;28;1985;-43
2023/03/05 09:51:11;;;;;;;;;;;;;;;;;;5091061;28;1673;-41
2023/03/05 09:53:47;;;;;;;;;;;;;;;;;;5090880;28;1639;-41
2023/03/05 09:56:18;;;;;;;;;;;;;;;;;;5091155;28;2225;-42
2023/03/05 09:58:47;;;;;;;;;;;;;;;;;;5091092;28;1918;-41
2023/03/05 10:01:17;;;;;;;;;;;;;;;;;;5090860;28;1451;-42
2023/03/05 10:03:47;;;;;;;;;;;;;;;;;;5090996;28;2085;-41
2023/03/05 10:06:14;;;;;;;;;;;;;;;;;;5074921;28;1979;-43
2023/03/05 10:08:45;;;;;;;;;;;;;;;;;;5070605;28;1784;-42
2023/03/05 10:11:26;;;;;;;;;;;;;;;;;;5070791;28;2135;-42
2023/03/05 10:13:53;;;;;;;;;;;;;;;;;;5070677;28;1814;-42
2023/03/05 10:16:33;;;;;;;;;;;;;;;;;;5070677;28;1798;-44
2023/03/05 10:19:13;;;;;;;;;;;;;;;;;;5070557;28;1955;-43
2023/03/05 10:21:43;;;;;;;;;;;;;;;;;;5070505;28;1771;-43
2023/03/05 10:24:18;;;;;;;;;;;;;;;;;;5070401;28;1662;-43
2023/03/05 10:26:46;;;;;;;;;;;;;;;;;;5070648;28;1887;-44
2023/03/05 10:29:22;;;;;;;;;;;;;;;;;;5070480;28;2307;-46
2023/03/05 10:32:08;;;;;;;;;;;;;;;;;;5078152;28;1942;-43
2023/03/05 10:34:42;;;;;;;;;;;;;;;;;;5090803;28;1776;-47
2023/03/05 10:37:28;;;;;;;;;;;;;;;;;;5090706;28;1504;-44
2023/03/05 10:40:01;;;;;;;;;;;;;;;;;;5090747;28;1843;-44
2023/03/05 10:42:43;;;;;;;;;;;;;;;;;;5090868;28;1860;-42
2023/03/05 10:45:20;;;;;;;;;;;;;;;;;;5090570;28;2298;-40
2023/03/05 10:48:06;;;;;;;;;;;;;;;;;;5091101;28;1910;-43
2023/03/05 10:50:39;;;;;;;;;;;;;;;;;;5094335;28;1963;-43
2023/03/05 10:53:06;;;;;;;;;;;;;;;;;;5059551;28;1932;-42
2023/03/05 10:55:34;;;;;;;;;;;;;;;;;;5094250;28;1763;-42
2023/03/05 10:58:08;;;;;;;;;;;;;;;;;;5094399;28;1536;-44
2023/03/05 11:00:36;;;;;;;;;;;;;;;;;;5093827;28;2063;-43
2023/03/05 11:03:03;;;;;;;;;;;;;;;;;;5093899;28;2145;-45
2023/03/05 11:05:33;;;;;;;;;;;;;;;;;;5089682;28;1696;-41
2023/03/05 11:08:00;;;;;;;;;;;;;;;;;;5094176;28;1912;-44
2023/03/05 11:10:27;;;;;;;;;;;;;;;;;;5094023;28;1909;-42
2023/03/05 11:12:57;;;;;;;;;;;;;;;;;;5093669;28;1968;-43
2023/03/05 11:15:27;;;;;;;;;;;;;;;;;;5093906;28;1953;-43
2023/03/05 11:18:23;;;;;;;;;;;;;;;;;;5077094;28;1881;-43
2023/03/05 11:20:50;;;;;;;;;;;;;;;;;;5060527;28;2019;-44
2023/03/05 11:23:25;;;;;;;;;;;;;;;;;;5073206;28;2102;-42
2023/03/05 11:26:03;;;;;;;;;;;;;;;;;;5073492;28;1965;-47
2023/03/05 11:28:35;;;;;;;;;;;;;;;;;;5073384;28;1554;-44
2023/03/05 11:31:14;;;;;;;;;;;;;;;;;;5074432;28;1878;-46
2023/03/05 11:33:58;;;;;;;;;;;;;;;;;;5093201;28;1984;-42
2023/03/05 11:36:28;;;;;;;;;;;;;;;;;;5093086;28;1457;-45
2023/03/05 11:38:57;;;;;;;;;;;;;;;;;;5075180;28;1774;-43
2023/03/05 11:41:30;;;;;;;;;;;;;;;;;;5093391;28;1661;-43
2023/03/05 11:44:02;;;;;;;;;;;;;;;;;;5093207;28;1886;-42
2023/03/05 11:46:33;;;;;;;;;;;;;;;;;;5093143;28;2016;-44
2023/03/05 11:49:01;;;;;;;;;;;;;;;;;;5093252;28;2141;-45
2023/03/05 11:51:35;;;;;;;;;;;;;;;;;;5092893;28;1921;-42
2023/03/05 11:54:06;;;;;;;;;;;;;;;;;;5093168;28;1791;-44
2023/03/05 11:56:35;;;;;;;;;;;;;;;;;;5093169;28;2055;-42
2023/03/05 11:59:02;;;;;;;;;;;;;;;;;;5093099;28;1770;-42
2023/03/05 12:01:31;;;;;;;;;;;;;;;;;;5084891;28;2196;-46
2023/03/05 12:03:59;;;;;;;;;;;;;;;;;;5072609;28;1605;-43
2023/03/05 12:06:36;;;;;;;;;;;;;;;;;;5089699;28;1956;-44
2023/03/05 12:09:08;;;;;;;;;;;;;;;;;;5092812;28;1728;-53
2023/03/05 12:11:36;;;;;;;;;;;;;;;;;;5087839;28;1875;-53
2023/03/05 12:14:03;;;;;;;;;;;;;;;;;;5072647;28;1911;-43
2023/03/05 12:16:37;;;;;;;;;;;;;;;;;;5072216;28;1845;-43
2023/03/05 12:19:20;;;;;;;;;;;;;;;;;;5071934;28;2109;-45
2023/03/05 12:21:51;;;;;;;;;;;;;;;;;;5071460;28;1478;-44
2023/03/05 12:24:24;;;;;;;;;;;;;;;;;;5071720;28;1939;-42
2023/03/05 12:27:02;;;;;;;;;;;;;;;;;;5071715;28;2141;-43
2023/03/05 12:29:36;;;;;;;;;;;;;;;;;;5071830;28;1768;-47
2023/03/05 12:32:04;;;;;;;;;;;;;;;;;;5081363;28;2312;-47
2023/03/05 12:34:34;;;;;;;;;;;;;;;;;;5091876;28;2021;-46
2023/03/05 12:37:02;;;;;;;;;;;;;;;;;;5091958;28;2008;-45
2023/03/05 12:39:39;;;;;;;;;;;;;;;;;;5092150;28;2174;-50
2023/03/05 12:42:24;;;;;;;;;;;;;;;;;;5092390;28;1229;-50
2023/03/05 12:45:18;;;;;;;;;;;;;;;;;;5091754;28;2193;-42
2023/03/05 12:47:45;;;;;;;;;;;;;;;;;;5091825;28;1979;-44
2023/03/05 12:50:27;;;;;;;;;;;;;;;;;;5092219;28;1945;-44
2023/03/05 12:53:14;;;;;;;;;;;;;;;;;;5091294;28;1929;-45
2023/03/05 12:55:47;;;;;;;;;;;;;;;;;;5091793;28;2347;-47
2023/03/05 12:58:33;;;;;;;;;;;;;;;;;;5092008;28;1842;-42
2023/03/05 13:01:18;;;;;;;;;;;;;;;;;;5091473;28;1551;-43
2023/03/05 13:03:49;;;;;;;;;;;;;;;;;;5073357;28;1794;-43
2023/03/05 13:06:23;;;;;;;;;;;;;;;;;;5075561;28;1920;-42
2023/03/05 13:08:55;;;;;;;;;;;;;;;;;;5071193;28;2082;-42
2023/03/05 13:11:22;;;;;;;;;;;;;;;;;;5070976;28;2201;-43
2023/03/05 13:13:50;;;;;;;;;;;;;;;;;;5071401;28;1602;-45
2023/03/05 13:16:19;;;;;;;;;;;;;;;;;;5069618;28;1898;-43
2023/03/05 13:18:47;;;;;;;;;;;;;;;;;;5070937;28;1976;-42
2023/03/05 13:21:19;;;;;;;;;;;;;;;;;;5070887;28;1830;-42
2023/03/05 13:23:48;;;;;;;;;;;;;;;;;;5070894;28;1826;-42
2023/03/05 13:26:17;;;;;;;;;;;;;;;;;;5070867;28;1676;-42
2023/03/05 13:29:01;;;;;;;;;;;;;;;;;;5070697;28;2048;-41
2023/03/05 13:31:29;;;;;;;;;;;;;;;;;;5075831;28;2232;-42
2023/03/05 13:34:06;;;;;;;;;;;;;;;;;;5091229;28;2248;-46
2023/03/05 13:36:34;;;;;;;;;;;;;;;;;;5091216;28;1735;-42
2023/03/05 13:39:02;;;;;;;;;;;;;;;;;;5091156;28;1847;-41
2023/03/05 13:41:30;;;;;;;;;;;;;;;;;;5091295;28;1595;-42
2023/03/05 13:43:59;;;;;;;;;;;;;;;;;;5091023;28;2262;-43
2023/03/05 13:46:27;;;;;;;;;;;;;;;;;;5091077;28;2088;-42
2023/03/05 13:48:55;;;;;;;;;;;;;;;;;;5091160;28;1682;-42
2023/03/05 13:51:22;;;;;;;;;;;;;;;;;;5090812;28;1855;-43
2023/03/05 13:53:50;;;;;;;;;;;;;;;;;;5091145;28;1832;-41
2023/03/05 13:56:18;;;;;;;;;;;;;;;;;;5090687;28;2003;-42
2023/03/05 13:58:52;;;;;;;;;;;;;;;;;;5091076;28;1498;-42
2023/03/05 14:01:23;;;;;;;;;;;;;;;;;;5069687;28;2060;-41
2023/03/05 14:03:51;;;;;;;;;;;;;;;;;;5070656;28;1692;-42
2023/03/05 14:06:20;;;;;;;;;;;;;;;;;;5073298;28;1960;-42
2023/03/05 14:08:51;;;;;;;;;;;;;;;;;;5070608;28;2083;-42
2023/03/05 14:11:19;;;;;;;;;;;;;;;;;;5070760;28;1935;-41
2023/03/05 14:13:46;;;;;;;;;;;;;;;;;;5070255;28;1985;-45
2023/03/05 14:16:22;;;;;;;;;;;;;;;;;;5070759;28;1627;-42
2023/03/05 14:18:54;;;;;;;;;;;;;;;;;;5069225;28;1600;-42
2023/03/05 14:21:21;;;;;;;;;;;;;;;;;;5070872;28;2264;-44
2023/03/05 14:23:51;;;;;;;;;;;;;;;;;;5072698;28;2210;-41
2023/03/05 14:26:45;;;;;;;;;;;;;;;;;;5074586;28;2101;-42
2023/03/05 14:29:14;;;;;;;;;;;;;;;;;;5071745;28;1824;-42
2023/03/05 14:31:49;;;;;;;;;;;;;;;;;;5081060;28;1900;-46
2023/03/05 14:34:23;;;;;;;;;;;;;;;;;;5094666;28;1819;-45
2023/03/05 14:36:51;;;;;;;;;;;;;;;;;;5086950;28;1753;-43
2023/03/05 14:39:36;;;;;;;;;;;;;;;;;;5074085;28;2352;-41
2023/03/05 14:42:23;;;;;;;;;;;;;;;;;;5056261;28;2085;-43
2023/03/05 14:44:50;;;;;;;;;;;;;;;;;;5074180;28;2147;-41
2023/03/05 14:47:20;;;;;;;;;;;;;;;;;;5073760;28;1937;-43
2023/03/05 14:49:47;;;;;;;;;;;;;;;;;;5073901;28;2023;-49
2023/03/05 14:52:16;;;;;;;;;;;;;;;;;;5074041;28;1600;-43
2023/03/05 14:54:43;;;;;;;;;;;;;;;;;;5072680;28;2321;-42
2023/03/05 14:57:17;;;;;;;;;;;;;;;;;;5073890;28;2061;-42
2023/03/05 14:59:44;;;;;;;;;;;;;;;;;;5073822;28;1713;-42
2023/03/05 15:02:15;;;;;;;;;;;;;;;;;;5073672;28;1770;-41
2023/03/05 15:04:44;;;;;;;;;;;;;;;;;;5076861;28;1438;-44
2023/03/05 15:07:19;;;;;;;;;;;;;;;;;;5093891;28;1938;-42
2023/03/05 15:09:46;;;;;;;;;;;;;;;;;;5093632;28;1555;-41
2023/03/05 15:12:14;;;;;;;;;;;;;;;;;;5093887;28;2176;-42
2023/03/05 15:14:42;;;;;;;;;;;;;;;;;;5088651;28;2116;-41
2023/03/05 15:17:13;;;;;;;;;;;;;;;;;;5073345;28;1705;-47
2023/03/05 15:19:40;;;;;;;;;;;;;;;;;;5073597;28;1805;-46
2023/03/05 15:22:09;;;;;;;;;;;;;;;;;;5073616;28;1716;-47
2023/03/05 15:24:36;;;;;;;;;;;;;;;;;;5073503;28;1944;-41
2023/03/05 15:27:04;;;;;;;;;;;;;;;;;;5073161;28;1997;-43
2023/03/05 15:29:32;;;;;;;;;;;;;;;;;;5086303;28;2013;-47
2023/03/05 15:32:00;;;;;;;;;;;;;;;;;;5088356;28;1780;-46
2023/03/05 15:34:28;;;;;;;;;;;;;;;;;;5092970;28;1640;-41
2023/03/05 15:36:55;;;;;;;;;;;;;;;;;;5093053;28;1721;-43
2023/03/05 15:39:25;;;;;;;;;;;;;;;;;;5075448;28;1669;-46
2023/03/05 15:41:53;;;;;;;;;;;;;;;;;;5093221;28;1648;-43
2023/03/05 15:44:20;;;;;;;;;;;;;;;;;;5093240;28;2149;-41
2023/03/05 15:46:47;;;;;;;;;;;;;;;;;;5093190;28;1961;-42
2023/03/05 15:49:14;;;;;;;;;;;;;;;;;;5075348;28;2202;-41
2023/03/05 15:51:42;;;;;;;;;;;;;;;;;;5092273;28;1944;-40
2023/03/05 15:54:10;;;;;;;;;;;;;;;;;;5092749;28;2125;-44
2023/03/05 15:56:38;;;;;;;;;;;;;;;;;;5092854;28;1905;-45
2023/03/05 15:59:06;;;;;;;;;;;;;;;;;;5058928;28;2181;-43
2023/03/05 16:01:33;;;;;;;;;;;;;;;;;;5072657;28;2026;-44
2023/03/05 16:04:01;;;;;;;;;;;;;;;;;;5072605;28;1670;-41
2023/03/05 16:06:28;;;;;;;;;;;;;;;;;;5072443;28;2215;-41
2023/03/05 16:08:59;;;;;;;;;;;;;;;;;;5054674;28;1973;-41
2023/03/05 16:11:27;;;;;;;;;;;;;;;;;;5072333;28;2266;-45
2023/03/05 16:13:55;;;;;;;;;;;;;;;;;;5054431;28;1904;-43
2023/03/05 16:16:24;;;;;;;;;;;;;;;;;;5054291;28;2174;-41
2023/03/05 16:18:52;;;;;;;;;;;;;;;;;;5072201;28;2154;-43
2023/03/05 16:21:19;;;;;;;;;;;;;;;;;;5073983;28;2287;-41
2023/03/05 16:23:48;;;;;;;;;;;;;;;;;;5080120;28;1789;-41
2023/03/05 16:26:17;;;;;;;;;;;;;;;;;;5072344;28;2048;-44
2023/03/05 16:28:52;;;;;;;;;;;;;;;;;;5071833;28;2247;-41
2023/03/05 16:31:22;;;;;;;;;;;;;;;;;;5054559;28;1405;-39
2023/03/05 16:33:49;;;;;;;;;;;;;;;;;;5072048;28;1782;-42
2023/03/05 16:36:21;;;;;;;;;;;;;;;;;;5072054;28;1693;-43
2023/03/05 16:38:50;;;;;;;;;;;;;;;;;;5071992;28;1833;-41
2023/03/05 16:41:19;;;;;;;;;;;;;;;;;;5072144;28;2331;-40
2023/03/05 16:43:49;;;;;;;;;;;;;;;;;;5053785;28;2056;-41
2023/03/05 16:46:16;;;;;;;;;;;;;;;;;;5071114;28;2291;-43
2023/03/05 16:48:43;;;;;;;;;;;;;;;;;;5071591;28;1911;-44
2023/03/05 16:51:11;;;;;;;;;;;;;;;;;;5073067;28;1855;-42
2023/03/05 16:53:38;;;;;;;;;;;;;;;;;;5071541;28;2134;-41
2023/03/05 16:56:07;;;;;;;;;;;;;;;;;;5071404;28;1579;-47
2023/03/05 16:58:35;;;;;;;;;;;;;;;;;;5072985;28;1874;-46
2023/03/05 17:01:07;;;;;;;;;;;;;;;;;;5080101;28;1370;-41
2023/03/05 17:03:34;;;;;;;;;;;;;;;;;;5091015;28;1955;-41
2023/03/05 17:06:12;;;;;;;;;;;;;;;;;;5077639;28;2231;-40
2023/03/05 17:08:40;;;;;;;;;;;;;;;;;;5072740;28;1900;-40
2023/03/05 17:11:08;;;;;;;;;;;;;;;;;;5070432;28;1936;-43
2023/03/05 17:13:35;;;;;;;;;;;;;;;;;;5071011;28;2064;-43
2023/03/05 17:16:03;;;;;;;;;;;;;;;;;;5070852;28;1897;-40
2023/03/05 17:18:31;;;;;;;;;;;;;;;;;;5070636;28;1674;-41